createdAt,value
2018-09-19T00:00:25.092Z,18.8
2018-09-19T00:01:25.774Z,18.8
2018-09-19T00:02:26.451Z,18.8
2018-09-19T00:03:27.126Z,18.7
2018-09-19T00:04:27.802Z,18.8
2018-09-19T00:05:28.480Z,18.7
2018-09-19T00:06:29.153Z,18.8
2018-09-19T00:07:29.830Z,18.8
2018-09-19T00:08:30.506Z,18.8
2018-09-19T00:09:31.182Z,18.8
2018-09-19T00:10:31.866Z,18.7
2018-09-19T00:11:32.579Z,18.8
2018-09-19T00:12:33.256Z,18.9
2018-09-19T00:13:33.930Z,18.8
2018-09-19T00:14:34.606Z,18.8
2018-09-19T00:15:35.282Z,18.8
2018-09-19T00:16:35.962Z,18.8
2018-09-19T00:17:36.678Z,18.8
2018-09-19T00:18:37.354Z,18.9
2018-09-19T00:19:38.035Z,18.9
2018-09-19T00:20:38.707Z,18.8
2018-09-19T00:21:39.382Z,18.8
2018-09-19T00:22:40.088Z,18.8
2018-09-19T00:23:40.755Z,18.8
2018-09-19T00:24:41.455Z,18.8
2018-09-19T00:25:42.212Z,18.8
2018-09-19T00:26:42.850Z,18.9
2018-09-19T00:27:43.526Z,18.8
2018-09-19T00:28:44.203Z,18.8
2018-09-19T00:29:44.879Z,18.8
2018-09-19T00:30:45.555Z,18.8
2018-09-19T00:31:46.236Z,18.8
2018-09-19T00:32:46.904Z,18.7
2018-09-19T00:33:47.581Z,18.7
2018-09-19T00:34:48.255Z,18.7
2018-09-19T00:35:48.931Z,18.7
2018-09-19T00:36:49.605Z,18.7
2018-09-19T00:37:50.281Z,18.7
2018-09-19T00:38:51.002Z,18.7
2018-09-19T00:39:51.640Z,18.7
2018-09-19T00:40:52.381Z,18.7
2018-09-19T00:41:53.026Z,18.7
2018-09-19T00:42:53.702Z,18.8
2018-09-19T00:43:54.386Z,18.7
2018-09-19T00:44:55.104Z,18.7
2018-09-19T00:45:55.776Z,18.6
2018-09-19T00:46:56.451Z,18.7
2018-09-19T00:47:57.125Z,18.7
2018-09-19T00:48:57.802Z,18.6
2018-09-19T00:49:58.477Z,18.7
2018-09-19T00:50:59.154Z,18.8
2018-09-19T00:51:59.828Z,18.7
2018-09-19T00:53:00.504Z,18.6
2018-09-19T00:54:01.180Z,18.6
2018-09-19T00:55:01.905Z,18.7
2018-09-19T00:56:02.621Z,18.7
2018-09-19T00:57:03.298Z,18.6
2018-09-19T00:58:03.972Z,18.5
2018-09-19T00:59:04.649Z,18.7
2018-09-19T01:00:05.326Z,18.6
2018-09-19T01:01:06.046Z,18.7
2018-09-19T01:02:06.732Z,18.7
2018-09-19T01:03:07.403Z,18.7
2018-09-19T01:04:08.076Z,18.7
2018-09-19T01:05:08.794Z,18.8
2018-09-19T01:06:09.470Z,18.6
2018-09-19T01:07:10.142Z,18.6
2018-09-19T01:08:10.819Z,18.7
2018-09-19T01:09:11.495Z,18.7
2018-09-19T01:10:12.172Z,18.7
2018-09-19T01:11:12.849Z,18.7
2018-09-19T01:12:13.522Z,18.7
2018-09-19T01:13:14.244Z,18.7
2018-09-19T01:14:14.919Z,18.6
2018-09-19T01:15:15.595Z,18.6
2018-09-19T01:16:16.272Z,18.7
2018-09-19T01:17:16.949Z,18.7
2018-09-19T01:18:17.622Z,18.7
2018-09-19T01:19:18.296Z,18.7
2018-09-19T01:20:18.978Z,18.7
2018-09-19T01:21:19.648Z,18.6
2018-09-19T01:22:20.327Z,18.6
2018-09-19T01:23:20.999Z,18.6
2018-09-19T01:24:21.678Z,18.7
2018-09-19T01:25:22.397Z,18.7
2018-09-19T01:26:23.071Z,18.6
2018-09-19T01:27:23.747Z,18.7
2018-09-19T01:28:24.422Z,18.7
2018-09-19T01:29:25.102Z,18.7
2018-09-19T01:30:25.775Z,18.6
2018-09-19T01:31:26.456Z,18.7
2018-09-19T01:32:27.170Z,18.7
2018-09-19T01:33:27.851Z,18.6
2018-09-19T01:34:28.523Z,18.8
2018-09-19T01:35:29.202Z,18.7
2018-09-19T01:36:29.920Z,18.7
2018-09-19T01:37:30.601Z,18.7
2018-09-19T01:38:31.272Z,18.7
2018-09-19T01:39:31.948Z,18.6
2018-09-19T01:40:32.621Z,18.7
2018-09-19T01:41:33.358Z,18.6
2018-09-19T01:42:34.023Z,18.7
2018-09-19T01:43:34.699Z,18.7
2018-09-19T01:44:35.373Z,18.7
2018-09-19T01:45:36.054Z,18.7
2018-09-19T01:46:36.726Z,18.7
2018-09-19T01:47:37.401Z,18.7
2018-09-19T01:48:38.122Z,18.7
2018-09-19T01:49:38.799Z,18.7
2018-09-19T01:50:39.476Z,18.7
2018-09-19T01:51:40.241Z,18.7
2018-09-19T01:52:40.871Z,18.7
2018-09-19T01:53:41.551Z,18.7
2018-09-19T01:54:42.222Z,18.6
2018-09-19T01:55:42.900Z,18.6
2018-09-19T01:56:43.577Z,18.6
2018-09-19T01:57:44.250Z,18.6
2018-09-19T01:58:44.926Z,18.6
2018-09-19T01:59:45.603Z,18.6
2018-09-19T02:00:46.277Z,18.6
2018-09-19T02:01:46.952Z,18.6
2018-09-19T02:02:47.629Z,18.7
2018-09-19T02:03:48.305Z,18.6
2018-09-19T02:04:48.980Z,18.8
2018-09-19T02:05:49.700Z,18.7
2018-09-19T02:06:50.378Z,18.9
2018-09-19T02:07:51.051Z,18.8
2018-09-19T02:08:51.726Z,18.7
2018-09-19T02:09:52.401Z,18.8
2018-09-19T02:10:53.077Z,18.8
2018-09-19T02:11:53.760Z,18.8
2018-09-19T02:12:54.432Z,18.8
2018-09-19T02:13:55.105Z,18.7
2018-09-19T02:14:55.779Z,18.8
2018-09-19T02:15:56.456Z,18.8
2018-09-19T02:16:57.132Z,18.8
2018-09-19T02:17:57.865Z,18.9
2018-09-19T02:18:58.508Z,18.9
2018-09-19T02:19:59.209Z,18.9
2018-09-19T02:20:59.932Z,18.8
2018-09-19T02:22:00.649Z,18.8
2018-09-19T02:23:01.323Z,18.8
2018-09-19T02:24:02.003Z,18.8
2018-09-19T02:25:02.678Z,18.9
2018-09-19T02:26:03.350Z,18.8
2018-09-19T02:27:04.025Z,18.8
2018-09-19T02:28:04.702Z,18.9
2018-09-19T02:29:05.399Z,18.8
2018-09-19T02:30:06.098Z,18.9
2018-09-19T02:31:06.775Z,18.9
2018-09-19T02:32:07.545Z,18.8
2018-09-19T02:33:08.220Z,18.9
2018-09-19T02:34:08.939Z,18.9
2018-09-19T02:35:09.616Z,18.8
2018-09-19T02:36:10.295Z,19.0
2018-09-19T02:37:10.967Z,18.9
2018-09-19T02:38:11.642Z,18.9
2018-09-19T02:39:12.316Z,18.9
2018-09-19T02:40:12.993Z,18.8
2018-09-19T02:41:13.669Z,18.9
2018-09-19T02:42:14.345Z,18.8
2018-09-19T02:43:15.021Z,18.9
2018-09-19T02:44:15.705Z,18.8
2018-09-19T02:45:16.371Z,18.8
2018-09-19T02:46:17.051Z,18.8
2018-09-19T02:47:17.722Z,18.8
2018-09-19T02:48:18.397Z,18.8
2018-09-19T02:49:19.138Z,18.8
2018-09-19T02:50:19.787Z,18.8
2018-09-19T02:51:20.511Z,18.9
2018-09-19T02:52:21.179Z,18.8
2018-09-19T02:53:21.853Z,18.8
2018-09-19T02:54:22.546Z,18.8
2018-09-19T02:55:23.253Z,18.8
2018-09-19T02:56:23.927Z,18.7
2018-09-19T02:57:24.603Z,18.8
2018-09-19T02:58:25.324Z,18.7
2018-09-19T02:59:25.999Z,18.6
2018-09-19T03:00:26.676Z,18.7
2018-09-19T03:01:27.395Z,18.7
2018-09-19T03:02:28.073Z,18.7
2018-09-19T03:03:28.746Z,18.6
2018-09-19T03:04:29.422Z,18.6
2018-09-19T03:05:30.096Z,18.6
2018-09-19T03:06:30.773Z,18.6
2018-09-19T03:07:31.449Z,18.6
2018-09-19T03:08:32.124Z,18.6
2018-09-19T03:09:32.804Z,18.5
2018-09-19T03:10:33.478Z,18.5
2018-09-19T03:11:34.153Z,18.6
2018-09-19T03:12:34.831Z,18.6
2018-09-19T03:13:35.509Z,18.6
2018-09-19T03:14:36.184Z,18.6
2018-09-19T03:15:36.862Z,18.6
2018-09-19T03:16:37.579Z,18.6
2018-09-19T03:17:38.386Z,18.6
2018-09-19T03:18:38.969Z,18.6
2018-09-19T03:19:39.642Z,18.6
2018-09-19T03:20:40.319Z,18.6
2018-09-19T03:21:41.036Z,18.6
2018-09-19T03:22:41.719Z,18.7
2018-09-19T03:23:42.432Z,18.6
2018-09-19T03:24:43.108Z,18.6
2018-09-19T03:25:43.787Z,18.6
2018-09-19T03:26:44.504Z,18.6
2018-09-19T03:27:45.181Z,18.6
2018-09-19T03:28:45.856Z,18.6
2018-09-19T03:29:46.555Z,18.6
2018-09-19T03:30:47.247Z,18.7
2018-09-19T03:31:47.963Z,18.6
2018-09-19T03:32:48.640Z,18.7
2018-09-19T03:33:49.315Z,18.7
2018-09-19T03:34:49.991Z,18.6
2018-09-19T03:35:50.667Z,18.7
2018-09-19T03:36:51.341Z,18.7
2018-09-19T03:37:52.018Z,18.7
2018-09-19T03:38:52.694Z,18.6
2018-09-19T03:39:53.417Z,18.8
2018-09-19T03:40:54.095Z,18.7
2018-09-19T03:41:54.770Z,18.7
2018-09-19T03:42:55.446Z,18.8
2018-09-19T03:43:56.164Z,18.8
2018-09-19T03:44:56.841Z,18.8
2018-09-19T03:45:57.515Z,18.7
2018-09-19T03:46:58.189Z,18.8
2018-09-19T03:47:58.868Z,18.9
2018-09-19T03:48:59.543Z,18.8
2018-09-19T03:50:00.216Z,18.8
2018-09-19T03:51:00.890Z,18.9
2018-09-19T03:52:01.567Z,18.8
2018-09-19T03:53:02.243Z,18.8
2018-09-19T03:54:02.917Z,18.9
2018-09-19T03:55:03.638Z,18.7
2018-09-19T03:56:04.311Z,18.7
2018-09-19T03:57:04.987Z,18.9
2018-09-19T03:58:05.709Z,18.8
2018-09-19T03:59:06.344Z,18.8
2018-09-19T04:00:07.059Z,18.8
2018-09-19T04:01:07.734Z,18.7
2018-09-19T04:02:08.409Z,18.6
2018-09-19T04:03:09.085Z,18.7
2018-09-19T04:04:09.761Z,18.7
2018-09-19T04:05:10.436Z,18.7
2018-09-19T04:06:11.115Z,18.6
2018-09-19T04:07:11.786Z,18.7
2018-09-19T04:08:12.463Z,18.6
2018-09-19T04:09:13.138Z,18.6
2018-09-19T04:10:13.862Z,18.7
2018-09-19T04:11:14.533Z,18.6
2018-09-19T04:12:15.211Z,18.6
2018-09-19T04:13:15.883Z,18.6
2018-09-19T04:14:16.558Z,18.5
2018-09-19T04:15:17.237Z,18.5
2018-09-19T04:16:17.911Z,18.5
2018-09-19T04:17:18.588Z,18.5
2018-09-19T04:18:19.261Z,18.4
2018-09-19T04:19:19.936Z,18.4
2018-09-19T04:20:20.611Z,18.4
2018-09-19T04:21:21.288Z,18.4
2018-09-19T04:22:22.022Z,18.4
2018-09-19T04:23:22.730Z,18.4
2018-09-19T04:24:23.401Z,18.4
2018-09-19T04:25:24.080Z,18.4
2018-09-19T04:26:24.752Z,18.3
2018-09-19T04:27:25.472Z,18.4
2018-09-19T04:28:26.148Z,18.3
2018-09-19T04:29:26.824Z,18.4
2018-09-19T04:30:27.506Z,18.4
2018-09-19T04:31:28.178Z,18.5
2018-09-19T04:32:28.979Z,18.4
2018-09-19T04:33:29.572Z,18.4
2018-09-19T04:34:30.249Z,18.4
2018-09-19T04:35:30.974Z,18.3
2018-09-19T04:36:31.645Z,18.4
2018-09-19T04:37:32.373Z,18.3
2018-09-19T04:38:33.042Z,18.3
2018-09-19T04:39:33.726Z,18.3
2018-09-19T04:40:34.481Z,18.3
2018-09-19T04:41:35.161Z,18.3
2018-09-19T04:42:35.874Z,18.4
2018-09-19T04:43:36.551Z,18.2
2018-09-19T04:44:37.227Z,18.3
2018-09-19T04:45:37.915Z,18.3
2018-09-19T04:46:38.626Z,18.2
2018-09-19T04:47:39.305Z,18.3
2018-09-19T04:48:39.976Z,18.3
2018-09-19T04:49:40.656Z,18.3
2018-09-19T04:50:41.377Z,18.2
2018-09-19T04:51:42.092Z,18.2
2018-09-19T04:52:42.728Z,18.2
2018-09-19T04:53:43.410Z,18.2
2018-09-19T04:54:44.085Z,18.2
2018-09-19T04:55:44.762Z,18.1
2018-09-19T04:56:45.439Z,18.0
2018-09-19T04:57:46.116Z,18.1
2018-09-19T04:58:46.795Z,18.0
2018-09-19T04:59:47.513Z,18.0
2018-09-19T05:00:48.191Z,18.0
2018-09-19T05:01:48.868Z,17.9
2018-09-19T05:02:49.593Z,18.0
2018-09-19T05:03:50.317Z,18.0
2018-09-19T05:04:51.038Z,17.9
2018-09-19T05:05:51.820Z,17.9
2018-09-19T05:06:52.398Z,17.9
2018-09-19T05:07:53.074Z,17.8
2018-09-19T05:08:53.752Z,17.8
2018-09-19T05:09:54.433Z,17.8
2018-09-19T05:10:55.108Z,17.8
2018-09-19T05:11:55.785Z,17.7
2018-09-19T05:12:56.462Z,17.6
2018-09-19T05:13:57.144Z,17.7
2018-09-19T05:14:57.823Z,17.7
2018-09-19T05:15:58.543Z,17.6
2018-09-19T05:16:59.224Z,17.5
2018-09-19T05:17:59.903Z,17.6
2018-09-19T05:19:00.626Z,17.5
2018-09-19T05:20:01.352Z,17.4
2018-09-19T05:21:02.044Z,17.5
2018-09-19T05:22:02.803Z,17.4
2018-09-19T05:23:03.481Z,17.4
2018-09-19T05:24:04.160Z,17.4
2018-09-19T05:25:04.836Z,17.4
2018-09-19T05:26:05.522Z,17.2
2018-09-19T05:27:06.239Z,17.3
2018-09-19T05:28:06.923Z,17.3
2018-09-19T05:29:07.643Z,17.3
2018-09-19T05:30:08.321Z,17.2
2018-09-19T05:31:08.998Z,17.3
2018-09-19T05:32:09.679Z,17.2
2018-09-19T05:33:10.358Z,17.3
2018-09-19T05:34:11.038Z,17.2
2018-09-19T05:35:11.716Z,17.2
2018-09-19T05:36:12.393Z,17.2
2018-09-19T05:37:13.072Z,17.2
2018-09-19T05:38:13.752Z,17.2
2018-09-19T05:39:14.475Z,17.2
2018-09-19T05:40:15.196Z,17.2
2018-09-19T05:41:15.891Z,17.2
2018-09-19T05:42:16.554Z,17.2
2018-09-19T05:43:17.276Z,17.2
2018-09-19T05:44:18.003Z,17.2
2018-09-19T05:45:18.685Z,17.2
2018-09-19T05:46:19.475Z,17.1
2018-09-19T05:47:20.085Z,17.2
2018-09-19T05:48:20.763Z,17.1
2018-09-19T05:49:21.440Z,17.3
2018-09-19T05:50:22.126Z,17.2
2018-09-19T05:51:22.844Z,17.2
2018-09-19T05:52:23.532Z,17.2
2018-09-19T05:53:24.248Z,17.2
2018-09-19T05:54:24.953Z,17.2
2018-09-19T05:55:25.609Z,17.2
2018-09-19T05:56:26.287Z,17.2
2018-09-19T05:57:26.967Z,17.2
2018-09-19T05:58:27.649Z,17.3
2018-09-19T05:59:28.328Z,17.2
2018-09-19T06:00:29.005Z,17.1
2018-09-19T06:01:29.684Z,17.2
2018-09-19T06:02:30.377Z,17.2
2018-09-19T06:03:31.044Z,17.1
2018-09-19T06:04:31.768Z,17.2
2018-09-19T06:05:32.492Z,17.2
2018-09-19T06:06:33.171Z,17.2
2018-09-19T06:07:33.895Z,17.2
2018-09-19T06:08:34.579Z,17.2
2018-09-19T06:09:35.252Z,17.3
2018-09-19T06:10:35.959Z,17.3
2018-09-19T06:11:36.659Z,17.3
2018-09-19T06:12:37.383Z,17.3
2018-09-19T06:13:38.018Z,17.4
2018-09-19T06:14:38.698Z,17.4
2018-09-19T06:15:39.380Z,17.4
2018-09-19T06:16:40.059Z,17.5
2018-09-19T06:17:40.737Z,17.5
2018-09-19T06:18:41.418Z,17.4
2018-09-19T06:19:42.142Z,17.5
2018-09-19T06:20:42.822Z,17.5
2018-09-19T06:21:43.500Z,17.5
2018-09-19T06:22:44.227Z,17.7
2018-09-19T06:23:44.898Z,17.7
2018-09-19T06:24:45.578Z,17.7
2018-09-19T06:25:46.259Z,17.7
2018-09-19T06:26:46.940Z,17.7
2018-09-19T06:27:47.665Z,17.8
2018-09-19T06:28:48.342Z,17.8
2018-09-19T06:29:49.024Z,17.9
2018-09-19T06:30:49.701Z,17.8
2018-09-19T06:31:50.382Z,17.9
2018-09-19T06:32:51.129Z,18.0
2018-09-19T06:33:51.741Z,18.0
2018-09-19T06:34:52.422Z,18.0
2018-09-19T06:35:53.124Z,18.0
2018-09-19T06:36:53.856Z,18.0
2018-09-19T06:37:54.507Z,18.1
2018-09-19T06:38:55.230Z,18.2
2018-09-19T06:39:55.925Z,18.1
2018-09-19T06:40:56.750Z,18.1
2018-09-19T06:41:57.335Z,18.3
2018-09-19T06:42:58.032Z,18.3
2018-09-19T06:43:58.756Z,18.4
2018-09-19T06:44:59.440Z,18.4
2018-09-19T06:46:00.120Z,18.4
2018-09-19T06:47:00.833Z,18.4
2018-09-19T06:48:01.478Z,18.5
2018-09-19T06:49:02.169Z,18.5
2018-09-19T06:50:02.881Z,18.6
2018-09-19T06:51:03.577Z,18.6
2018-09-19T06:52:04.297Z,18.7
2018-09-19T06:53:04.960Z,18.6
2018-09-19T06:54:05.640Z,18.7
2018-09-19T06:55:06.323Z,18.8
2018-09-19T06:56:06.997Z,18.8
2018-09-19T06:57:07.684Z,18.8
2018-09-19T06:58:08.402Z,18.9
2018-09-19T06:59:09.081Z,18.9
2018-09-19T07:00:09.762Z,19.0
2018-09-19T07:01:10.442Z,19.1
2018-09-19T07:02:11.125Z,19.1
2018-09-19T07:03:11.846Z,19.2
2018-09-19T07:04:12.530Z,19.2
2018-09-19T07:05:13.207Z,19.2
2018-09-19T07:06:13.886Z,19.3
2018-09-19T07:07:14.568Z,19.3
2018-09-19T07:08:15.248Z,19.4
2018-09-19T07:09:15.972Z,19.4
2018-09-19T07:10:16.654Z,19.4
2018-09-19T07:11:17.365Z,19.5
2018-09-19T07:12:18.059Z,19.6
2018-09-19T07:13:18.742Z,19.6
2018-09-19T07:14:19.462Z,19.6
2018-09-19T07:15:20.150Z,19.7
2018-09-19T07:16:20.875Z,19.8
2018-09-19T07:17:21.557Z,19.8
2018-09-19T07:18:22.238Z,19.9
2018-09-19T07:19:22.919Z,20.0
2018-09-19T07:20:23.639Z,20.1
2018-09-19T07:21:24.329Z,20.1
2018-09-19T07:22:25.011Z,20.1
2018-09-19T07:23:25.691Z,20.3
2018-09-19T07:24:26.374Z,20.4
2018-09-19T07:25:27.063Z,20.5
2018-09-19T07:26:27.814Z,20.6
2018-09-19T07:27:28.511Z,20.7
2018-09-19T07:28:29.199Z,20.7
2018-09-19T07:29:29.920Z,20.8
2018-09-19T07:30:30.666Z,21.0
2018-09-19T07:31:31.329Z,21.2
2018-09-19T07:32:32.011Z,21.6
2018-09-19T07:33:32.705Z,22.1
2018-09-19T07:34:33.422Z,22.7
2018-09-19T07:35:34.123Z,23.2
2018-09-19T07:36:34.787Z,23.8
2018-09-19T07:37:35.513Z,24.3
2018-09-19T07:38:36.197Z,24.9
2018-09-19T07:39:36.880Z,25.4
2018-09-19T07:40:37.564Z,25.9
2018-09-19T07:41:38.245Z,26.4
2018-09-19T07:42:38.928Z,27.0
2018-09-19T07:43:39.610Z,27.4
2018-09-19T07:44:40.336Z,27.9
2018-09-19T07:45:40.978Z,28.3
2018-09-19T07:46:41.723Z,28.8
2018-09-19T07:47:42.346Z,29.1
2018-09-19T07:48:43.030Z,29.5
2018-09-19T07:49:43.715Z,29.8
2018-09-19T07:50:44.398Z,30.2
2018-09-19T07:51:45.083Z,30.6
2018-09-19T07:52:45.812Z,30.9
2018-09-19T07:53:46.498Z,31.1
2018-09-19T07:54:47.345Z,31.4
2018-09-19T07:55:47.913Z,31.4
2018-09-19T07:56:48.620Z,31.3
2018-09-19T07:57:49.286Z,31.3
2018-09-19T07:58:49.971Z,31.4
2018-09-19T07:59:50.703Z,31.3
2018-09-19T08:00:51.475Z,31.3
2018-09-19T08:01:52.034Z,31.4
2018-09-19T08:02:52.763Z,31.6
2018-09-19T08:03:53.452Z,31.9
2018-09-19T08:04:54.138Z,32.2
2018-09-19T08:05:54.832Z,32.2
2018-09-19T08:06:55.559Z,32.5
2018-09-19T08:07:56.308Z,32.7
2018-09-19T08:08:57.053Z,32.9
2018-09-19T08:09:57.684Z,33.0
2018-09-19T08:10:58.383Z,33.0
2018-09-19T08:11:59.108Z,33.2
2018-09-19T08:12:59.839Z,33.2
2018-09-19T08:14:00.524Z,33.4
2018-09-19T08:15:01.213Z,33.5
2018-09-19T08:16:01.900Z,33.4
2018-09-19T08:17:02.674Z,33.5
2018-09-19T08:18:03.276Z,33.5
2018-09-19T08:19:03.965Z,33.5
2018-09-19T08:20:04.700Z,33.4
2018-09-19T08:21:05.385Z,33.2
2018-09-19T08:22:06.076Z,33.1
2018-09-19T08:23:06.767Z,33.0
2018-09-19T08:24:07.452Z,33.1
2018-09-19T08:25:08.143Z,33.3
2018-09-19T08:26:08.830Z,33.4
2018-09-19T08:27:09.561Z,33.3
2018-09-19T08:28:10.246Z,33.3
2018-09-19T08:29:10.935Z,33.0
2018-09-19T08:30:11.622Z,33.0
2018-09-19T08:31:12.356Z,33.0
2018-09-19T08:32:13.048Z,33.0
2018-09-19T08:33:13.781Z,32.8
2018-09-19T08:34:14.540Z,32.8
2018-09-19T08:35:15.251Z,33.0
2018-09-19T08:36:15.982Z,33.0
2018-09-19T08:37:16.678Z,33.2
2018-09-19T08:38:17.361Z,33.3
2018-09-19T08:39:18.054Z,33.2
2018-09-19T08:40:18.737Z,33.1
2018-09-19T08:41:19.428Z,33.2
2018-09-19T08:42:20.116Z,33.3
2018-09-19T08:43:20.806Z,33.5
2018-09-19T08:44:21.496Z,33.5
2018-09-19T08:45:22.185Z,33.6
2018-09-19T08:46:22.873Z,33.6
2018-09-19T08:47:23.564Z,33.5
2018-09-19T08:48:24.251Z,33.6
2018-09-19T08:49:24.940Z,33.6
2018-09-19T08:50:25.644Z,33.5
2018-09-19T08:51:26.366Z,33.4
2018-09-19T08:52:27.057Z,33.4
2018-09-19T08:53:27.789Z,33.3
2018-09-19T08:54:28.483Z,33.4
2018-09-19T08:55:29.169Z,33.4
2018-09-19T08:56:29.903Z,33.5
2018-09-19T08:57:30.594Z,33.6
2018-09-19T08:58:31.284Z,33.8
2018-09-19T08:59:31.972Z,33.8
2018-09-19T09:00:32.663Z,33.7
2018-09-19T09:01:33.397Z,33.6
2018-09-19T09:02:34.086Z,33.5
2018-09-19T09:03:34.821Z,33.3
2018-09-19T09:04:35.555Z,33.1
2018-09-19T09:05:36.245Z,33.0
2018-09-19T09:06:36.944Z,32.7
2018-09-19T09:07:37.684Z,32.6
2018-09-19T09:08:38.358Z,32.7
2018-09-19T09:09:39.051Z,32.8
2018-09-19T09:10:39.740Z,32.9
2018-09-19T09:11:40.475Z,32.9
2018-09-19T09:12:41.226Z,33.0
2018-09-19T09:13:41.854Z,33.0
2018-09-19T09:14:42.543Z,32.9
2018-09-19T09:15:43.231Z,32.6
2018-09-19T09:16:43.922Z,32.4
2018-09-19T09:17:44.610Z,32.4
2018-09-19T09:18:45.300Z,32.4
2018-09-19T09:19:46.003Z,32.4
2018-09-19T09:20:46.717Z,32.6
2018-09-19T09:21:47.408Z,32.8
2018-09-19T09:22:48.127Z,32.8
2018-09-19T09:23:48.831Z,32.9
2018-09-19T09:24:49.521Z,33.0
2018-09-19T09:25:50.209Z,32.9
2018-09-19T09:26:50.995Z,33.0
2018-09-19T09:27:51.589Z,33.1
2018-09-19T09:28:52.281Z,33.2
2018-09-19T09:29:53.011Z,33.3
2018-09-19T09:30:53.699Z,33.4
2018-09-19T09:31:54.389Z,33.5
2018-09-19T09:32:55.124Z,33.4
2018-09-19T09:33:55.811Z,33.1
2018-09-19T09:34:56.502Z,33.0
2018-09-19T09:35:57.194Z,32.7
2018-09-19T09:36:58.011Z,32.5
2018-09-19T09:37:58.619Z,32.4
2018-09-19T09:38:59.350Z,32.4
2018-09-19T09:40:00.039Z,32.5
2018-09-19T09:41:00.728Z,32.4
2018-09-19T09:42:01.416Z,32.6
2018-09-19T09:43:02.109Z,32.6
2018-09-19T09:44:02.843Z,32.5
2018-09-19T09:45:03.577Z,32.6
2018-09-19T09:46:04.329Z,32.5
2018-09-19T09:47:05.000Z,32.6
2018-09-19T09:48:05.692Z,32.6
2018-09-19T09:49:06.380Z,32.6
2018-09-19T09:50:07.105Z,32.7
2018-09-19T09:51:07.803Z,32.6
2018-09-19T09:52:08.499Z,32.6
2018-09-19T09:53:09.272Z,32.4
2018-09-19T09:54:09.956Z,32.4
2018-09-19T09:55:10.662Z,32.4
2018-09-19T09:56:11.367Z,32.4
2018-09-19T09:57:12.072Z,32.2
2018-09-19T09:58:12.808Z,32.2
2018-09-19T09:59:13.546Z,32.2
2018-09-19T10:00:14.237Z,32.2
2018-09-19T10:01:14.924Z,32.2
2018-09-19T10:02:15.616Z,32.1
2018-09-19T10:03:16.344Z,32.1
2018-09-19T10:04:17.041Z,31.9
2018-09-19T10:05:17.755Z,31.8
2018-09-19T10:06:18.465Z,31.6
2018-09-19T10:07:19.106Z,31.4
2018-09-19T10:08:19.795Z,31.2
2018-09-19T10:09:20.484Z,31.2
2018-09-19T10:10:21.175Z,31.0
2018-09-19T10:11:21.946Z,30.9
2018-09-19T10:12:22.643Z,30.7
2018-09-19T10:13:23.349Z,30.6
2018-09-19T10:14:24.067Z,30.5
2018-09-19T10:15:24.757Z,30.4
2018-09-19T10:16:25.444Z,30.2
2018-09-19T10:17:26.133Z,30.1
2018-09-19T10:18:26.825Z,30.2
2018-09-19T10:19:27.510Z,30.1
2018-09-19T10:20:28.248Z,30.0
2018-09-19T10:21:28.934Z,30.1
2018-09-19T10:22:29.622Z,30.0
2018-09-19T10:23:30.313Z,29.9
2018-09-19T10:24:30.998Z,29.9
2018-09-19T10:25:31.686Z,29.8
2018-09-19T10:26:32.375Z,29.9
2018-09-19T10:27:33.063Z,29.9
2018-09-19T10:28:33.753Z,29.9
2018-09-19T10:29:34.536Z,29.9
2018-09-19T10:30:35.173Z,29.9
2018-09-19T10:31:35.860Z,29.9
2018-09-19T10:32:36.595Z,29.8
2018-09-19T10:33:37.285Z,29.7
2018-09-19T10:34:37.969Z,29.8
2018-09-19T10:35:38.659Z,29.8
2018-09-19T10:36:39.345Z,29.7
2018-09-19T10:37:40.034Z,29.6
2018-09-19T10:38:40.721Z,29.5
2018-09-19T10:39:41.407Z,29.6
2018-09-19T10:40:42.096Z,29.6
2018-09-19T10:41:42.784Z,29.5
2018-09-19T10:42:43.470Z,29.5
2018-09-19T10:43:44.189Z,29.6
2018-09-19T10:44:44.854Z,29.5
2018-09-19T10:45:45.583Z,29.4
2018-09-19T10:46:46.265Z,29.4
2018-09-19T10:47:46.952Z,29.4
2018-09-19T10:48:47.640Z,29.5
2018-09-19T10:49:48.333Z,29.3
2018-09-19T10:50:49.015Z,29.3
2018-09-19T10:51:49.703Z,29.3
2018-09-19T10:52:50.392Z,29.4
2018-09-19T10:53:51.080Z,29.4
2018-09-19T10:54:51.765Z,29.3
2018-09-19T10:55:52.453Z,29.3
2018-09-19T10:56:53.145Z,29.3
2018-09-19T10:57:53.829Z,29.3
2018-09-19T10:58:54.515Z,29.3
2018-09-19T10:59:55.205Z,29.3
2018-09-19T11:00:55.891Z,29.3
2018-09-19T11:01:56.576Z,29.2
2018-09-19T11:02:57.265Z,29.3
2018-09-19T11:03:57.997Z,29.3
2018-09-19T11:04:58.676Z,29.2
2018-09-19T11:05:59.420Z,29.2
2018-09-19T11:07:00.102Z,29.3
2018-09-19T11:08:00.793Z,29.2
2018-09-19T11:09:01.477Z,29.2
2018-09-19T11:10:02.163Z,29.2
2018-09-19T11:11:02.852Z,29.2
2018-09-19T11:12:03.541Z,29.2
2018-09-19T11:13:04.225Z,29.3
2018-09-19T11:14:04.913Z,29.2
2018-09-19T11:15:05.599Z,29.3
2018-09-19T11:16:06.287Z,29.3
2018-09-19T11:17:07.036Z,29.1
2018-09-19T11:18:07.708Z,29.3
2018-09-19T11:19:08.441Z,29.2
2018-09-19T11:20:09.128Z,29.2
2018-09-19T11:21:09.814Z,29.2
2018-09-19T11:22:10.502Z,29.2
2018-09-19T11:23:11.188Z,29.2
2018-09-19T11:24:11.875Z,29.1
2018-09-19T11:25:12.605Z,29.1
2018-09-19T11:26:13.252Z,29.1
2018-09-19T11:27:13.942Z,29.2
2018-09-19T11:28:14.628Z,29.2
2018-09-19T11:29:15.355Z,29.2
2018-09-19T11:30:16.072Z,29.2
2018-09-19T11:31:16.778Z,29.2
2018-09-19T11:32:17.465Z,29.2
2018-09-19T11:33:18.153Z,29.3
2018-09-19T11:34:18.837Z,29.3
2018-09-19T11:35:19.527Z,29.2
2018-09-19T11:36:20.212Z,29.2
2018-09-19T11:37:20.898Z,29.3
2018-09-19T11:38:21.589Z,29.2
2018-09-19T11:39:22.319Z,29.1
2018-09-19T11:40:23.006Z,29.3
2018-09-19T11:41:23.740Z,29.1
2018-09-19T11:42:24.475Z,29.2
2018-09-19T11:43:25.212Z,29.1
2018-09-19T11:44:25.897Z,29.1
2018-09-19T11:45:26.586Z,29.1
2018-09-19T11:46:27.271Z,29.1
2018-09-19T11:47:28.012Z,29.1
2018-09-19T11:48:28.742Z,29.1
2018-09-19T11:49:29.474Z,29.2
2018-09-19T11:50:30.162Z,29.1
2018-09-19T11:51:30.873Z,29.2
2018-09-19T11:52:31.580Z,29.1
2018-09-19T11:53:32.276Z,29.1
2018-09-19T11:54:33.000Z,29.1
2018-09-19T11:55:33.736Z,29.1
2018-09-19T11:56:34.423Z,29.2
2018-09-19T11:57:35.109Z,29.1
2018-09-19T11:58:35.795Z,29.1
2018-09-19T11:59:36.482Z,29.2
2018-09-19T12:00:37.174Z,29.1
2018-09-19T12:01:37.900Z,29.1
2018-09-19T12:02:38.586Z,29.1
2018-09-19T12:03:39.274Z,29.1
2018-09-19T12:04:39.959Z,29.0
2018-09-19T12:05:40.646Z,29.0
2018-09-19T12:06:41.336Z,29.2
2018-09-19T12:07:42.024Z,29.1
2018-09-19T12:08:42.710Z,29.2
2018-09-19T12:09:43.397Z,29.2
2018-09-19T12:10:44.084Z,29.1
2018-09-19T12:11:44.770Z,29.2
2018-09-19T12:12:45.457Z,29.2
2018-09-19T12:13:46.234Z,29.0
2018-09-19T12:14:46.926Z,29.1
2018-09-19T12:15:47.614Z,29.1
2018-09-19T12:16:48.330Z,29.0
2018-09-19T12:17:49.031Z,29.1
2018-09-19T12:18:49.718Z,29.1
2018-09-19T12:19:50.407Z,29.1
2018-09-19T12:20:51.092Z,29.1
2018-09-19T12:21:51.777Z,29.1
2018-09-19T12:22:52.464Z,29.1
2018-09-19T12:23:53.154Z,29.1
2018-09-19T12:24:53.888Z,29.2
2018-09-19T12:25:54.615Z,29.2
2018-09-19T12:26:55.303Z,29.2
2018-09-19T12:27:55.989Z,29.1
2018-09-19T12:28:56.675Z,29.1
2018-09-19T12:29:57.362Z,29.2
2018-09-19T12:30:58.051Z,29.3
2018-09-19T12:31:58.780Z,29.2
2018-09-19T12:32:59.465Z,29.2
2018-09-19T12:34:00.193Z,29.2
2018-09-19T12:35:00.879Z,29.1
2018-09-19T12:36:01.565Z,29.0
2018-09-19T12:37:02.253Z,29.0
2018-09-19T12:38:02.941Z,29.0
2018-09-19T12:39:03.631Z,29.1
2018-09-19T12:40:04.315Z,29.1
2018-09-19T12:41:05.002Z,29.2
2018-09-19T12:42:05.688Z,29.3
2018-09-19T12:43:06.378Z,29.3
2018-09-19T12:44:07.068Z,29.3
2018-09-19T12:45:07.796Z,29.3
2018-09-19T12:46:08.483Z,29.3
2018-09-19T12:47:09.167Z,29.3
2018-09-19T12:48:09.855Z,29.3
2018-09-19T12:49:10.585Z,29.3
2018-09-19T12:50:11.230Z,29.3
2018-09-19T12:51:11.933Z,29.3
2018-09-19T12:52:12.651Z,29.3
2018-09-19T12:53:13.375Z,29.3
2018-09-19T12:54:14.023Z,29.3
2018-09-19T12:55:14.712Z,29.3
2018-09-19T12:56:15.400Z,29.3
2018-09-19T12:57:16.086Z,29.3
2018-09-19T12:58:16.791Z,29.3
2018-09-19T12:59:17.506Z,29.3
2018-09-19T13:00:18.193Z,29.3
2018-09-19T13:01:18.914Z,29.3
2018-09-19T13:02:19.611Z,29.3
2018-09-19T13:03:20.341Z,29.3
2018-09-19T13:04:21.033Z,29.3
2018-09-19T13:05:21.767Z,29.3
2018-09-19T13:06:22.458Z,29.3
2018-09-19T13:07:23.186Z,29.4
2018-09-19T13:08:23.871Z,29.3
2018-09-19T13:09:24.560Z,29.4
2018-09-19T13:10:25.245Z,29.3
2018-09-19T13:11:25.932Z,29.3
2018-09-19T13:12:26.618Z,29.4
2018-09-19T13:13:27.305Z,29.4
2018-09-19T13:14:27.991Z,29.4
2018-09-19T13:15:28.679Z,29.4
2018-09-19T13:16:29.367Z,29.4
2018-09-19T13:17:30.054Z,29.4
2018-09-19T13:18:30.741Z,29.5
2018-09-19T13:19:31.430Z,29.4
2018-09-19T13:20:32.118Z,29.5
2018-09-19T13:21:32.802Z,29.5
2018-09-19T13:22:33.489Z,29.5
2018-09-19T13:23:34.177Z,29.5
2018-09-19T13:24:34.867Z,29.5
2018-09-19T13:25:35.595Z,29.6
2018-09-19T13:26:36.335Z,29.5
2018-09-19T13:27:37.021Z,29.5